sensor_id;sensor_type;location;lat;lon;timestamp;P1;durP1;ratioP1;P2;durP2;ratioP2
41219;SDS011;26951;47.338;9.196;2023-03-07T00:01:47;17.60;;;9.35;;
41219;SDS011;26951;47.338;9.196;2023-03-07T00:04:31;15.10;;;8.63;;
41219;SDS011;26951;47.338;9.196;2023-03-07T00:07:16;13.40;;;8.88;;
41219;SDS011;26951;47.338;9.196;2023-03-07T00:10:00;13.68;;;8.48;;
41219;SDS011;26951;47.338;9.196;2023-03-07T00:12:44;14.80;;;8.93;;
41219;SDS011;26951;47.338;9.196;2023-03-07T00:15:29;14.80;;;9.52;;
41219;SDS011;26951;47.338;9.196;2023-03-07T00:18:13;14.05;;;8.20;;
41219;SDS011;26951;47.338;9.196;2023-03-07T00:21:00;14.70;;;10.05;;
41219;SDS011;26951;47.338;9.196;2023-03-07T00:23:50;13.95;;;8.50;;
41219;SDS011;26951;47.338;9.196;2023-03-07T00:26:35;13.98;;;8.13;;
41219;SDS011;26951;47.338;9.196;2023-03-07T00:29:22;16.10;;;9.40;;
41219;SDS011;26951;47.338;9.196;2023-03-07T00:32:06;18.80;;;9.25;;
41219;SDS011;26951;47.338;9.196;2023-03-07T00:34:50;14.05;;;9.00;;
41219;SDS011;26951;47.338;9.196;2023-03-07T00:37:34;14.77;;;9.43;;
41219;SDS011;26951;47.338;9.196;2023-03-07T00:40:18;14.38;;;9.55;;
41219;SDS011;26951;47.338;9.196;2023-03-07T00:43:03;16.40;;;10.77;;
41219;SDS011;26951;47.338;9.196;2023-03-07T00:45:47;15.77;;;8.90;;
41219;SDS011;26951;47.338;9.196;2023-03-07T00:48:34;17.95;;;10.85;;
41219;SDS011;26951;47.338;9.196;2023-03-07T00:51:20;17.33;;;10.02;;
41219;SDS011;26951;47.338;9.196;2023-03-07T00:54:06;14.32;;;9.02;;
41219;SDS011;26951;47.338;9.196;2023-03-07T00:56:50;17.42;;;10.73;;
41219;SDS011;26951;47.338;9.196;2023-03-07T00:59:34;16.02;;;10.25;;
41219;SDS011;26951;47.338;9.196;2023-03-07T01:02:18;15.48;;;9.55;;
41219;SDS011;26951;47.338;9.196;2023-03-07T01:05:03;17.70;;;9.50;;
41219;SDS011;26951;47.338;9.196;2023-03-07T01:07:47;17.00;;;10.27;;
41219;SDS011;26951;47.338;9.196;2023-03-07T01:10:31;14.63;;;9.25;;
41219;SDS011;26951;47.338;9.196;2023-03-07T01:13:17;15.70;;;10.40;;
41219;SDS011;26951;47.338;9.196;2023-03-07T01:16:35;15.50;;;9.88;;
41219;SDS011;26951;47.338;9.196;2023-03-07T01:19:13;18.42;;;10.70;;
41219;SDS011;26951;47.338;9.196;2023-03-07T01:21:57;19.30;;;11.00;;
41219;SDS011;26951;47.338;9.196;2023-03-07T01:24:42;16.25;;;10.68;;
41219;SDS011;26951;47.338;9.196;2023-03-07T01:27:26;15.50;;;9.88;;
41219;SDS011;26951;47.338;9.196;2023-03-07T01:30:10;16.33;;;10.23;;
41219;SDS011;26951;47.338;9.196;2023-03-07T01:32:55;14.27;;;10.55;;
41219;SDS011;26951;47.338;9.196;2023-03-07T01:35:40;17.90;;;10.10;;
41219;SDS011;26951;47.338;9.196;2023-03-07T01:38:24;20.20;;;12.23;;
41219;SDS011;26951;47.338;9.196;2023-03-07T01:41:08;15.43;;;9.93;;
41219;SDS011;26951;47.338;9.196;2023-03-07T01:43:53;23.10;;;11.27;;
41219;SDS011;26951;47.338;9.196;2023-03-07T01:46:47;18.10;;;11.02;;
41219;SDS011;26951;47.338;9.196;2023-03-07T01:49:37;19.33;;;10.90;;
41219;SDS011;26951;47.338;9.196;2023-03-07T01:52:26;18.17;;;10.70;;
41219;SDS011;26951;47.338;9.196;2023-03-07T01:55:16;15.57;;;10.63;;
41219;SDS011;26951;47.338;9.196;2023-03-07T01:58:03;20.00;;;11.68;;
41219;SDS011;26951;47.338;9.196;2023-03-07T02:04:34;17.95;;;10.50;;
41219;SDS011;26951;47.338;9.196;2023-03-07T02:07:26;18.63;;;10.18;;
41219;SDS011;26951;47.338;9.196;2023-03-07T02:10:16;19.98;;;11.77;;
41219;SDS011;26951;47.338;9.196;2023-03-07T02:13:03;20.23;;;11.43;;
41219;SDS011;26951;47.338;9.196;2023-03-07T02:15:47;19.38;;;11.77;;
41219;SDS011;26951;47.338;9.196;2023-03-07T02:18:34;18.48;;;11.02;;
41219;SDS011;26951;47.338;9.196;2023-03-07T02:21:44;18.08;;;11.52;;
41219;SDS011;26951;47.338;9.196;2023-03-07T02:24:39;17.63;;;10.43;;
41219;SDS011;26951;47.338;9.196;2023-03-07T02:27:35;22.75;;;13.43;;
41219;SDS011;26951;47.338;9.196;2023-03-07T02:30:20;23.48;;;11.80;;
41219;SDS011;26951;47.338;9.196;2023-03-07T02:33:05;17.95;;;11.05;;
41219;SDS011;26951;47.338;9.196;2023-03-07T02:35:53;17.33;;;11.50;;
41219;SDS011;26951;47.338;9.196;2023-03-07T02:38:41;17.55;;;10.43;;
41219;SDS011;26951;47.338;9.196;2023-03-07T02:41:28;20.85;;;11.35;;
41219;SDS011;26951;47.338;9.196;2023-03-07T02:44:14;15.90;;;10.13;;
41219;SDS011;26951;47.338;9.196;2023-03-07T02:46:58;17.55;;;11.00;;
41219;SDS011;26951;47.338;9.196;2023-03-07T02:49:42;17.65;;;11.15;;
41219;SDS011;26951;47.338;9.196;2023-03-07T02:52:26;16.52;;;11.60;;
41219;SDS011;26951;47.338;9.196;2023-03-07T02:55:12;18.85;;;12.05;;
41219;SDS011;26951;47.338;9.196;2023-03-07T02:57:56;16.67;;;10.57;;
41219;SDS011;26951;47.338;9.196;2023-03-07T03:00:40;19.15;;;11.05;;
41219;SDS011;26951;47.338;9.196;2023-03-07T03:03:24;18.10;;;10.65;;
41219;SDS011;26951;47.338;9.196;2023-03-07T03:06:08;15.48;;;9.95;;
41219;SDS011;26951;47.338;9.196;2023-03-07T03:08:53;16.10;;;10.20;;
41219;SDS011;26951;47.338;9.196;2023-03-07T03:11:37;19.83;;;10.55;;
41219;SDS011;26951;47.338;9.196;2023-03-07T03:14:21;16.55;;;9.57;;
41219;SDS011;26951;47.338;9.196;2023-03-07T03:17:06;17.65;;;10.30;;
41219;SDS011;26951;47.338;9.196;2023-03-07T03:19:50;19.58;;;10.95;;
41219;SDS011;26951;47.338;9.196;2023-03-07T03:22:34;13.95;;;8.63;;
41219;SDS011;26951;47.338;9.196;2023-03-07T03:25:18;15.43;;;9.30;;
41219;SDS011;26951;47.338;9.196;2023-03-07T03:28:05;14.27;;;9.02;;
41219;SDS011;26951;47.338;9.196;2023-03-07T03:30:56;16.45;;;9.25;;
41219;SDS011;26951;47.338;9.196;2023-03-07T03:33:45;17.42;;;10.35;;
41219;SDS011;26951;47.338;9.196;2023-03-07T03:36:32;15.38;;;9.95;;
41219;SDS011;26951;47.338;9.196;2023-03-07T03:39:16;12.95;;;8.30;;
41219;SDS011;26951;47.338;9.196;2023-03-07T03:42:00;16.90;;;9.60;;
41219;SDS011;26951;47.338;9.196;2023-03-07T03:44:44;16.23;;;8.98;;
41219;SDS011;26951;47.338;9.196;2023-03-07T03:47:28;17.55;;;10.25;;
41219;SDS011;26951;47.338;9.196;2023-03-07T03:50:12;15.88;;;9.05;;
41219;SDS011;26951;47.338;9.196;2023-03-07T03:52:56;12.82;;;8.35;;
41219;SDS011;26951;47.338;9.196;2023-03-07T03:55:42;17.02;;;8.75;;
41219;SDS011;26951;47.338;9.196;2023-03-07T03:58:26;16.35;;;9.43;;
41219;SDS011;26951;47.338;9.196;2023-03-07T04:01:10;15.13;;;8.73;;
41219;SDS011;26951;47.338;9.196;2023-03-07T04:03:56;15.48;;;9.30;;
41219;SDS011;26951;47.338;9.196;2023-03-07T04:06:40;16.20;;;9.07;;
41219;SDS011;26951;47.338;9.196;2023-03-07T04:09:25;16.33;;;9.50;;
41219;SDS011;26951;47.338;9.196;2023-03-07T04:12:09;14.02;;;8.50;;
41219;SDS011;26951;47.338;9.196;2023-03-07T04:14:53;15.30;;;8.45;;
41219;SDS011;26951;47.338;9.196;2023-03-07T04:17:37;14.02;;;8.93;;
41219;SDS011;26951;47.338;9.196;2023-03-07T04:20:21;17.75;;;8.88;;
41219;SDS011;26951;47.338;9.196;2023-03-07T04:23:06;18.17;;;9.20;;
41219;SDS011;26951;47.338;9.196;2023-03-07T04:25:51;12.52;;;8.10;;
41219;SDS011;26951;47.338;9.196;2023-03-07T04:28:40;12.27;;;8.43;;
41219;SDS011;26951;47.338;9.196;2023-03-07T04:31:29;16.40;;;9.13;;
41219;SDS011;26951;47.338;9.196;2023-03-07T04:34:13;14.68;;;8.95;;
41219;SDS011;26951;47.338;9.196;2023-03-07T04:36:57;15.80;;;8.75;;
41219;SDS011;26951;47.338;9.196;2023-03-07T04:39:41;14.43;;;7.75;;
41219;SDS011;26951;47.338;9.196;2023-03-07T04:42:26;14.90;;;8.43;;
41219;SDS011;26951;47.338;9.196;2023-03-07T04:45:10;13.98;;;7.80;;
41219;SDS011;26951;47.338;9.196;2023-03-07T04:47:54;13.38;;;8.90;;
41219;SDS011;26951;47.338;9.196;2023-03-07T04:50:38;15.80;;;8.20;;
41219;SDS011;26951;47.338;9.196;2023-03-07T04:53:22;14.80;;;8.60;;
41219;SDS011;26951;47.338;9.196;2023-03-07T04:56:06;15.48;;;8.43;;
41219;SDS011;26951;47.338;9.196;2023-03-07T04:58:51;16.15;;;9.05;;
41219;SDS011;26951;47.338;9.196;2023-03-07T05:01:35;12.60;;;8.70;;
41219;SDS011;26951;47.338;9.196;2023-03-07T05:04:20;13.98;;;8.52;;
41219;SDS011;26951;47.338;9.196;2023-03-07T05:07:04;14.70;;;8.18;;
41219;SDS011;26951;47.338;9.196;2023-03-07T05:09:48;11.95;;;8.27;;
41219;SDS011;26951;47.338;9.196;2023-03-07T05:12:32;13.10;;;8.00;;
41219;SDS011;26951;47.338;9.196;2023-03-07T05:15:16;14.57;;;8.80;;
41219;SDS011;26951;47.338;9.196;2023-03-07T05:18:00;13.73;;;8.32;;
41219;SDS011;26951;47.338;9.196;2023-03-07T05:20:44;13.90;;;8.98;;
41219;SDS011;26951;47.338;9.196;2023-03-07T05:23:29;17.20;;;8.93;;
41219;SDS011;26951;47.338;9.196;2023-03-07T05:26:13;13.63;;;8.57;;
41219;SDS011;26951;47.338;9.196;2023-03-07T05:28:57;14.95;;;9.00;;
41219;SDS011;26951;47.338;9.196;2023-03-07T05:31:41;21.23;;;10.55;;
41219;SDS011;26951;47.338;9.196;2023-03-07T05:34:25;15.52;;;10.27;;
41219;SDS011;26951;47.338;9.196;2023-03-07T05:37:10;15.27;;;9.27;;
41219;SDS011;26951;47.338;9.196;2023-03-07T05:39:53;20.27;;;10.45;;
41219;SDS011;26951;47.338;9.196;2023-03-07T05:42:38;17.35;;;10.13;;
41219;SDS011;26951;47.338;9.196;2023-03-07T05:45:22;16.98;;;10.32;;
41219;SDS011;26951;47.338;9.196;2023-03-07T05:48:06;18.52;;;10.18;;
41219;SDS011;26951;47.338;9.196;2023-03-07T05:50:50;18.42;;;10.02;;
41219;SDS011;26951;47.338;9.196;2023-03-07T05:53:35;16.23;;;8.85;;
41219;SDS011;26951;47.338;9.196;2023-03-07T05:56:18;13.75;;;8.50;;
41219;SDS011;26951;47.338;9.196;2023-03-07T05:59:03;11.98;;;8.95;;
41219;SDS011;26951;47.338;9.196;2023-03-07T06:01:50;15.07;;;8.60;;
41219;SDS011;26951;47.338;9.196;2023-03-07T06:04:34;14.70;;;9.55;;
41219;SDS011;26951;47.338;9.196;2023-03-07T06:07:18;18.08;;;8.88;;
41219;SDS011;26951;47.338;9.196;2023-03-07T06:10:02;13.68;;;8.02;;
41219;SDS011;26951;47.338;9.196;2023-03-07T06:12:50;17.95;;;9.57;;
41219;SDS011;26951;47.338;9.196;2023-03-07T06:15:35;16.45;;;8.65;;
41219;SDS011;26951;47.338;9.196;2023-03-07T06:18:21;17.77;;;9.25;;
41219;SDS011;26951;47.338;9.196;2023-03-07T06:21:07;14.98;;;8.27;;
41219;SDS011;26951;47.338;9.196;2023-03-07T06:23:55;20.17;;;9.27;;
41219;SDS011;26951;47.338;9.196;2023-03-07T06:26:39;14.50;;;9.40;;
41219;SDS011;26951;47.338;9.196;2023-03-07T06:29:23;14.95;;;9.90;;
41219;SDS011;26951;47.338;9.196;2023-03-07T06:32:07;20.70;;;11.00;;
41219;SDS011;26951;47.338;9.196;2023-03-07T06:34:51;22.63;;;11.90;;
41219;SDS011;26951;47.338;9.196;2023-03-07T06:37:35;18.15;;;10.05;;
41219;SDS011;26951;47.338;9.196;2023-03-07T06:40:19;16.45;;;10.30;;
41219;SDS011;26951;47.338;9.196;2023-03-07T06:43:04;13.90;;;8.52;;
41219;SDS011;26951;47.338;9.196;2023-03-07T06:45:48;15.07;;;9.15;;
41219;SDS011;26951;47.338;9.196;2023-03-07T06:48:32;14.38;;;8.90;;
41219;SDS011;26951;47.338;9.196;2023-03-07T06:51:17;14.15;;;7.55;;
41219;SDS011;26951;47.338;9.196;2023-03-07T06:54:01;12.82;;;7.82;;
41219;SDS011;26951;47.338;9.196;2023-03-07T06:56:45;15.73;;;8.15;;
41219;SDS011;26951;47.338;9.196;2023-03-07T06:59:29;18.00;;;9.23;;
41219;SDS011;26951;47.338;9.196;2023-03-07T07:02:14;14.60;;;7.68;;
41219;SDS011;26951;47.338;9.196;2023-03-07T07:04:58;16.10;;;8.73;;
41219;SDS011;26951;47.338;9.196;2023-03-07T07:07:42;16.58;;;9.00;;
41219;SDS011;26951;47.338;9.196;2023-03-07T07:10:26;11.60;;;7.43;;
41219;SDS011;26951;47.338;9.196;2023-03-07T07:13:11;13.77;;;8.95;;
41219;SDS011;26951;47.338;9.196;2023-03-07T07:15:55;14.93;;;8.65;;
41219;SDS011;26951;47.338;9.196;2023-03-07T07:18:39;12.70;;;8.60;;
41219;SDS011;26951;47.338;9.196;2023-03-07T07:21:23;14.18;;;8.57;;
41219;SDS011;26951;47.338;9.196;2023-03-07T07:24:10;13.88;;;8.50;;
41219;SDS011;26951;47.338;9.196;2023-03-07T07:26:55;12.95;;;8.35;;
41219;SDS011;26951;47.338;9.196;2023-03-07T07:29:39;13.85;;;8.45;;
41219;SDS011;26951;47.338;9.196;2023-03-07T07:32:23;14.82;;;9.57;;
41219;SDS011;26951;47.338;9.196;2023-03-07T07:35:08;16.15;;;8.82;;
41219;SDS011;26951;47.338;9.196;2023-03-07T07:37:52;15.73;;;8.95;;
41219;SDS011;26951;47.338;9.196;2023-03-07T07:40:37;13.13;;;7.38;;
41219;SDS011;26951;47.338;9.196;2023-03-07T07:43:21;16.02;;;8.43;;
41219;SDS011;26951;47.338;9.196;2023-03-07T07:46:06;15.30;;;8.25;;
41219;SDS011;26951;47.338;9.196;2023-03-07T07:48:50;13.10;;;9.02;;
41219;SDS011;26951;47.338;9.196;2023-03-07T07:51:34;14.98;;;8.82;;
41219;SDS011;26951;47.338;9.196;2023-03-07T07:54:18;14.98;;;8.65;;
41219;SDS011;26951;47.338;9.196;2023-03-07T07:57:02;14.25;;;8.32;;
41219;SDS011;26951;47.338;9.196;2023-03-07T07:59:47;11.35;;;7.60;;
41219;SDS011;26951;47.338;9.196;2023-03-07T08:02:32;12.23;;;8.63;;
41219;SDS011;26951;47.338;9.196;2023-03-07T08:05:18;11.57;;;7.97;;
41219;SDS011;26951;47.338;9.196;2023-03-07T08:08:03;14.38;;;8.23;;
41219;SDS011;26951;47.338;9.196;2023-03-07T08:10:47;12.77;;;7.93;;
41219;SDS011;26951;47.338;9.196;2023-03-07T08:13:32;13.90;;;7.50;;
41219;SDS011;26951;47.338;9.196;2023-03-07T08:16:20;12.63;;;8.00;;
41219;SDS011;26951;47.338;9.196;2023-03-07T08:19:05;13.80;;;7.38;;
41219;SDS011;26951;47.338;9.196;2023-03-07T08:21:49;13.25;;;8.25;;
41219;SDS011;26951;47.338;9.196;2023-03-07T08:24:33;15.27;;;8.23;;
41219;SDS011;26951;47.338;9.196;2023-03-07T08:27:17;12.05;;;7.88;;
41219;SDS011;26951;47.338;9.196;2023-03-07T08:30:02;12.43;;;8.13;;
41219;SDS011;26951;47.338;9.196;2023-03-07T08:32:47;13.75;;;8.25;;
41219;SDS011;26951;47.338;9.196;2023-03-07T08:35:33;13.75;;;8.25;;
41219;SDS011;26951;47.338;9.196;2023-03-07T08:38:17;14.40;;;7.90;;
41219;SDS011;26951;47.338;9.196;2023-03-07T08:41:04;15.30;;;8.25;;
41219;SDS011;26951;47.338;9.196;2023-03-07T08:43:49;12.68;;;8.43;;
41219;SDS011;26951;47.338;9.196;2023-03-07T08:46:34;11.30;;;7.83;;
41219;SDS011;26951;47.338;9.196;2023-03-07T08:49:18;17.45;;;9.65;;
41219;SDS011;26951;47.338;9.196;2023-03-07T08:52:02;13.52;;;8.73;;
41219;SDS011;26951;47.338;9.196;2023-03-07T08:54:46;13.95;;;8.32;;
41219;SDS011;26951;47.338;9.196;2023-03-07T08:57:30;17.52;;;9.80;;
41219;SDS011;26951;47.338;9.196;2023-03-07T09:00:15;14.18;;;8.93;;
41219;SDS011;26951;47.338;9.196;2023-03-07T09:03:00;13.07;;;8.48;;
41219;SDS011;26951;47.338;9.196;2023-03-07T09:05:44;18.58;;;10.32;;
41219;SDS011;26951;47.338;9.196;2023-03-07T09:08:28;14.82;;;9.38;;
41219;SDS011;26951;47.338;9.196;2023-03-07T09:11:13;19.73;;;10.43;;
41219;SDS011;26951;47.338;9.196;2023-03-07T09:13:58;16.67;;;8.63;;
41219;SDS011;26951;47.338;9.196;2023-03-07T09:16:42;14.60;;;9.40;;
41219;SDS011;26951;47.338;9.196;2023-03-07T09:19:26;14.07;;;10.13;;
41219;SDS011;26951;47.338;9.196;2023-03-07T09:22:10;16.40;;;9.63;;
41219;SDS011;26951;47.338;9.196;2023-03-07T09:24:54;15.50;;;9.32;;
41219;SDS011;26951;47.338;9.196;2023-03-07T09:27:38;16.80;;;9.88;;
41219;SDS011;26951;47.338;9.196;2023-03-07T09:30:22;14.98;;;9.50;;
41219;SDS011;26951;47.338;9.196;2023-03-07T09:33:07;15.32;;;9.80;;
41219;SDS011;26951;47.338;9.196;2023-03-07T09:35:51;12.77;;;8.40;;
41219;SDS011;26951;47.338;9.196;2023-03-07T09:38:36;14.88;;;10.02;;
41219;SDS011;26951;47.338;9.196;2023-03-07T09:41:29;17.48;;;10.20;;
41219;SDS011;26951;47.338;9.196;2023-03-07T09:53:52;15.75;;;9.73;;
41219;SDS011;26951;47.338;9.196;2023-03-07T09:57:15;15.20;;;9.55;;
41219;SDS011;26951;47.338;9.196;2023-03-07T10:00:00;18.87;;;10.17;;
41219;SDS011;26951;47.338;9.196;2023-03-07T10:05:49;16.55;;;9.88;;
41219;SDS011;26951;47.338;9.196;2023-03-07T10:08:36;15.82;;;9.43;;
41219;SDS011;26951;47.338;9.196;2023-03-07T10:14:40;15.15;;;9.82;;
41219;SDS011;26951;47.338;9.196;2023-03-07T10:29:52;15.15;;;9.18;;
41219;SDS011;26951;47.338;9.196;2023-03-07T10:32:48;17.38;;;10.70;;
41219;SDS011;26951;47.338;9.196;2023-03-07T10:35:39;16.23;;;10.10;;
41219;SDS011;26951;47.338;9.196;2023-03-07T10:41:28;14.50;;;9.55;;
41219;SDS011;26951;47.338;9.196;2023-03-07T10:47:38;15.77;;;9.50;;
41219;SDS011;26951;47.338;9.196;2023-03-07T10:50:40;18.33;;;10.75;;
41219;SDS011;26951;47.338;9.196;2023-03-07T10:53:33;14.88;;;9.88;;
41219;SDS011;26951;47.338;9.196;2023-03-07T10:56:19;15.52;;;10.65;;
41219;SDS011;26951;47.338;9.196;2023-03-07T10:59:04;15.38;;;10.13;;
41219;SDS011;26951;47.338;9.196;2023-03-07T11:01:55;16.35;;;10.25;;
41219;SDS011;26951;47.338;9.196;2023-03-07T11:04:42;16.23;;;10.65;;
41219;SDS011;26951;47.338;9.196;2023-03-07T11:13:22;15.27;;;10.68;;
41219;SDS011;26951;47.338;9.196;2023-03-07T11:16:28;16.10;;;10.50;;
41219;SDS011;26951;47.338;9.196;2023-03-07T11:25:13;17.95;;;10.32;;
41219;SDS011;26951;47.338;9.196;2023-03-07T11:28:09;16.73;;;10.83;;
41219;SDS011;26951;47.338;9.196;2023-03-07T11:40:19;14.95;;;10.48;;
41219;SDS011;26951;47.338;9.196;2023-03-07T11:46:13;14.93;;;10.68;;
41219;SDS011;26951;47.338;9.196;2023-03-07T12:01:55;15.55;;;10.50;;
41219;SDS011;26951;47.338;9.196;2023-03-07T12:05:01;14.40;;;9.68;;
41219;SDS011;26951;47.338;9.196;2023-03-07T12:17:00;18.40;;;10.52;;
41219;SDS011;26951;47.338;9.196;2023-03-07T12:25:54;14.90;;;10.32;;
41219;SDS011;26951;47.338;9.196;2023-03-07T12:28:43;18.05;;;11.27;;
41219;SDS011;26951;47.338;9.196;2023-03-07T12:31:44;17.25;;;10.57;;
41219;SDS011;26951;47.338;9.196;2023-03-07T12:34:45;15.95;;;10.82;;
41219;SDS011;26951;47.338;9.196;2023-03-07T12:37:36;15.00;;;9.50;;
41219;SDS011;26951;47.338;9.196;2023-03-07T12:40:34;14.98;;;10.25;;
41219;SDS011;26951;47.338;9.196;2023-03-07T12:43:32;17.63;;;10.57;;
41219;SDS011;26951;47.338;9.196;2023-03-07T12:46:30;13.95;;;9.60;;
41219;SDS011;26951;47.338;9.196;2023-03-07T12:49:39;17.00;;;10.98;;
41219;SDS011;26951;47.338;9.196;2023-03-07T12:55:44;13.13;;;9.40;;
41219;SDS011;26951;47.338;9.196;2023-03-07T12:58:45;15.80;;;10.20;;
41219;SDS011;26951;47.338;9.196;2023-03-07T13:01:40;13.40;;;9.27;;
41219;SDS011;26951;47.338;9.196;2023-03-07T13:04:31;14.43;;;9.90;;
41219;SDS011;26951;47.338;9.196;2023-03-07T13:07:26;16.63;;;10.05;;
41219;SDS011;26951;47.338;9.196;2023-03-07T13:10:19;14.77;;;9.77;;
41219;SDS011;26951;47.338;9.196;2023-03-07T13:13:25;14.88;;;9.43;;
41219;SDS011;26951;47.338;9.196;2023-03-07T13:16:38;15.23;;;10.50;;
41219;SDS011;26951;47.338;9.196;2023-03-07T13:31:37;15.75;;;10.00;;
41219;SDS011;26951;47.338;9.196;2023-03-07T13:34:41;14.15;;;9.68;;
41219;SDS011;26951;47.338;9.196;2023-03-07T13:49:34;13.50;;;9.75;;
41219;SDS011;26951;47.338;9.196;2023-03-07T13:52:27;13.38;;;9.20;;
41219;SDS011;26951;47.338;9.196;2023-03-07T13:55:19;18.08;;;10.55;;
41219;SDS011;26951;47.338;9.196;2023-03-07T13:58:16;18.67;;;10.75;;
41219;SDS011;26951;47.338;9.196;2023-03-07T14:01:11;14.90;;;10.32;;
41219;SDS011;26951;47.338;9.196;2023-03-07T14:04:12;15.68;;;10.20;;
41219;SDS011;26951;47.338;9.196;2023-03-07T14:19:48;18.92;;;10.43;;
41219;SDS011;26951;47.338;9.196;2023-03-07T14:26:38;14.55;;;9.50;;
41219;SDS011;26951;47.338;9.196;2023-03-07T14:29:26;13.55;;;10.20;;
41219;SDS011;26951;47.338;9.196;2023-03-07T14:32:23;15.15;;;10.52;;
41219;SDS011;26951;47.338;9.196;2023-03-07T14:35:12;17.10;;;10.25;;
41219;SDS011;26951;47.338;9.196;2023-03-07T14:37:58;16.33;;;10.43;;
41219;SDS011;26951;47.338;9.196;2023-03-07T14:40:45;18.27;;;11.20;;
41219;SDS011;26951;47.338;9.196;2023-03-07T14:50:17;16.23;;;10.65;;
41219;SDS011;26951;47.338;9.196;2023-03-07T14:53:08;18.80;;;11.80;;
41219;SDS011;26951;47.338;9.196;2023-03-07T14:55:55;15.70;;;10.40;;
41219;SDS011;26951;47.338;9.196;2023-03-07T14:58:46;18.10;;;11.40;;
41219;SDS011;26951;47.338;9.196;2023-03-07T15:01:37;19.13;;;10.82;;
41219;SDS011;26951;47.338;9.196;2023-03-07T15:04:24;17.35;;;10.70;;
41219;SDS011;26951;47.338;9.196;2023-03-07T15:07:16;16.73;;;11.18;;
41219;SDS011;26951;47.338;9.196;2023-03-07T15:10:03;21.10;;;10.73;;
41219;SDS011;26951;47.338;9.196;2023-03-07T15:12:51;18.77;;;11.20;;
41219;SDS011;26951;47.338;9.196;2023-03-07T15:15:40;18.98;;;10.55;;
41219;SDS011;26951;47.338;9.196;2023-03-07T15:18:31;15.40;;;10.30;;
41219;SDS011;26951;47.338;9.196;2023-03-07T15:21:25;18.38;;;10.68;;
41219;SDS011;26951;47.338;9.196;2023-03-07T15:24:20;22.30;;;11.32;;
41219;SDS011;26951;47.338;9.196;2023-03-07T15:27:12;19.65;;;12.30;;
41219;SDS011;26951;47.338;9.196;2023-03-07T15:29:59;18.23;;;11.88;;
41219;SDS011;26951;47.338;9.196;2023-03-07T15:32:45;19.98;;;12.13;;
41219;SDS011;26951;47.338;9.196;2023-03-07T15:35:29;20.92;;;11.48;;
41219;SDS011;26951;47.338;9.196;2023-03-07T15:38:17;18.20;;;11.40;;
41219;SDS011;26951;47.338;9.196;2023-03-07T15:46:56;18.10;;;11.48;;
41219;SDS011;26951;47.338;9.196;2023-03-07T15:49:46;19.48;;;11.23;;
41219;SDS011;26951;47.338;9.196;2023-03-07T15:52:34;17.35;;;10.93;;
41219;SDS011;26951;47.338;9.196;2023-03-07T15:55:23;18.90;;;11.05;;
41219;SDS011;26951;47.338;9.196;2023-03-07T15:58:12;18.55;;;10.30;;
41219;SDS011;26951;47.338;9.196;2023-03-07T16:01:04;18.75;;;12.20;;
41219;SDS011;26951;47.338;9.196;2023-03-07T16:04:01;19.77;;;12.38;;
41219;SDS011;26951;47.338;9.196;2023-03-07T16:06:46;16.77;;;10.55;;
41219;SDS011;26951;47.338;9.196;2023-03-07T16:09:30;21.30;;;10.98;;
41219;SDS011;26951;47.338;9.196;2023-03-07T16:12:18;19.80;;;10.63;;
41219;SDS011;26951;47.338;9.196;2023-03-07T16:15:04;18.27;;;12.32;;
41219;SDS011;26951;47.338;9.196;2023-03-07T16:17:49;17.30;;;11.95;;
41219;SDS011;26951;47.338;9.196;2023-03-07T16:20:37;20.10;;;11.80;;
41219;SDS011;26951;47.338;9.196;2023-03-07T16:23:21;22.15;;;13.93;;
41219;SDS011;26951;47.338;9.196;2023-03-07T16:26:06;18.10;;;11.63;;
41219;SDS011;26951;47.338;9.196;2023-03-07T16:28:54;19.38;;;11.73;;
41219;SDS011;26951;47.338;9.196;2023-03-07T16:31:38;20.77;;;12.25;;
41219;SDS011;26951;47.338;9.196;2023-03-07T16:34:23;19.23;;;12.25;;
41219;SDS011;26951;47.338;9.196;2023-03-07T16:37:07;18.77;;;10.98;;
41219;SDS011;26951;47.338;9.196;2023-03-07T16:39:51;17.42;;;10.80;;
41219;SDS011;26951;47.338;9.196;2023-03-07T16:42:36;19.75;;;11.02;;
41219;SDS011;26951;47.338;9.196;2023-03-07T16:45:22;19.83;;;13.25;;
41219;SDS011;26951;47.338;9.196;2023-03-07T16:48:09;23.08;;;12.68;;
41219;SDS011;26951;47.338;9.196;2023-03-07T16:50:56;25.23;;;12.88;;
41219;SDS011;26951;47.338;9.196;2023-03-07T16:53:40;20.83;;;12.63;;
41219;SDS011;26951;47.338;9.196;2023-03-07T16:56:27;16.35;;;10.85;;
41219;SDS011;26951;47.338;9.196;2023-03-07T16:59:16;23.48;;;12.35;;
41219;SDS011;26951;47.338;9.196;2023-03-07T17:02:09;19.75;;;11.23;;
41219;SDS011;26951;47.338;9.196;2023-03-07T17:04:57;22.95;;;13.43;;
41219;SDS011;26951;47.338;9.196;2023-03-07T17:07:41;18.00;;;10.35;;
41219;SDS011;26951;47.338;9.196;2023-03-07T17:10:25;17.60;;;11.73;;
41219;SDS011;26951;47.338;9.196;2023-03-07T17:13:11;16.88;;;10.70;;
41219;SDS011;26951;47.338;9.196;2023-03-07T17:15:59;17.98;;;10.73;;
41219;SDS011;26951;47.338;9.196;2023-03-07T17:18:43;15.82;;;10.18;;
41219;SDS011;26951;47.338;9.196;2023-03-07T17:21:27;15.52;;;10.38;;
41219;SDS011;26951;47.338;9.196;2023-03-07T17:24:11;18.17;;;11.20;;
41219;SDS011;26951;47.338;9.196;2023-03-07T17:26:57;16.33;;;10.38;;
41219;SDS011;26951;47.338;9.196;2023-03-07T17:29:46;16.40;;;10.55;;
41219;SDS011;26951;47.338;9.196;2023-03-07T17:32:33;15.65;;;9.93;;
41219;SDS011;26951;47.338;9.196;2023-03-07T17:35:18;17.63;;;10.73;;
41219;SDS011;26951;47.338;9.196;2023-03-07T17:38:02;15.23;;;9.90;;
41219;SDS011;26951;47.338;9.196;2023-03-07T17:40:51;18.23;;;10.50;;
41219;SDS011;26951;47.338;9.196;2023-03-07T17:43:37;19.73;;;10.00;;
41219;SDS011;26951;47.338;9.196;2023-03-07T17:46:21;21.70;;;11.02;;
41219;SDS011;26951;47.338;9.196;2023-03-07T17:49:07;17.02;;;10.82;;
41219;SDS011;26951;47.338;9.196;2023-03-07T17:51:51;17.58;;;10.02;;
41219;SDS011;26951;47.338;9.196;2023-03-07T17:54:35;20.75;;;11.38;;
41219;SDS011;26951;47.338;9.196;2023-03-07T17:57:20;16.58;;;11.60;;
41219;SDS011;26951;47.338;9.196;2023-03-07T18:00:04;20.42;;;12.52;;
41219;SDS011;26951;47.338;9.196;2023-03-07T18:02:54;18.85;;;11.43;;
41219;SDS011;26951;47.338;9.196;2023-03-07T18:05:38;19.95;;;11.15;;
41219;SDS011;26951;47.338;9.196;2023-03-07T18:08:26;20.48;;;11.02;;
41219;SDS011;26951;47.338;9.196;2023-03-07T18:11:11;17.08;;;11.25;;
41219;SDS011;26951;47.338;9.196;2023-03-07T18:13:56;20.27;;;10.80;;
41219;SDS011;26951;47.338;9.196;2023-03-07T18:16:41;20.70;;;11.05;;
41219;SDS011;26951;47.338;9.196;2023-03-07T18:19:26;21.13;;;10.70;;
41219;SDS011;26951;47.338;9.196;2023-03-07T18:22:10;19.13;;;11.70;;
41219;SDS011;26951;47.338;9.196;2023-03-07T18:24:55;16.80;;;11.82;;
41219;SDS011;26951;47.338;9.196;2023-03-07T18:27:39;31.08;;;18.63;;
41219;SDS011;26951;47.338;9.196;2023-03-07T18:30:23;20.48;;;13.05;;
41219;SDS011;26951;47.338;9.196;2023-03-07T18:33:07;23.88;;;11.57;;
41219;SDS011;26951;47.338;9.196;2023-03-07T18:35:51;18.38;;;12.32;;
41219;SDS011;26951;47.338;9.196;2023-03-07T18:38:36;18.83;;;11.98;;
41219;SDS011;26951;47.338;9.196;2023-03-07T18:41:21;17.33;;;10.30;;
41219;SDS011;26951;47.338;9.196;2023-03-07T18:44:07;18.58;;;11.02;;
41219;SDS011;26951;47.338;9.196;2023-03-07T18:46:52;19.80;;;11.60;;
41219;SDS011;26951;47.338;9.196;2023-03-07T18:49:36;15.32;;;10.13;;
41219;SDS011;26951;47.338;9.196;2023-03-07T18:52:21;17.92;;;10.77;;